Time;durP1;ratioP1;P1;durP2;ratioP2;P2;SDS_P1;SDS_P2;PMS_P1;PMS_P2;Temp;Humidity;BMP_temperature;BMP_pressure;BME280_temperature;BME280_humidity;BME280_pressure;Samples;Min_cycle;Max_cycle;Signal;HPM_P1;HPM_P2
2021/08/11 00:00:14;;;;;;;15.18;7.70;;;;;;;-145.01;100.00;64805.59;4994203;28;20026;-60
2021/08/11 00:02:39;;;;;;;17.50;7.72;;;;;;;-145.01;100.00;64805.59;4994535;28;20112;-59
2021/08/11 00:05:05;;;;;;;15.88;8.02;;;;;;;-145.01;100.00;64805.59;4993959;28;20026;-59
2021/08/11 00:07:31;;;;;;;14.15;7.65;;;;;;;-145.01;100.00;64805.59;4994363;28;20034;-60
2021/08/11 00:09:56;;;;;;;13.35;8.00;;;;;;;-145.01;100.00;64805.59;4994159;28;20034;-59
2021/08/11 00:12:21;;;;;;;18.73;8.30;;;;;;;-145.01;100.00;64805.59;4992634;28;20046;-60
2021/08/11 00:14:47;;;;;;;15.27;8.30;;;;;;;-145.01;100.00;64805.59;4994188;28;20038;-59
2021/08/11 00:17:12;;;;;;;15.13;8.18;;;;;;;-145.01;100.00;64805.59;4992505;28;20038;-59
2021/08/11 00:19:38;;;;;;;12.40;7.13;;;;;;;-145.01;100.00;64805.59;4994023;28;20384;-59
2021/08/11 00:22:04;;;;;;;17.35;6.80;;;;;;;-145.01;100.00;64805.59;4993587;28;20045;-59
2021/08/11 00:24:29;;;;;;;13.05;7.78;;;;;;;-145.01;100.00;64805.59;4994291;28;20030;-59
2021/08/11 00:26:55;;;;;;;13.75;7.90;;;;;;;-145.01;100.00;64805.59;4993542;28;20038;-60
2021/08/11 00:29:20;;;;;;;16.08;8.00;;;;;;;-145.01;100.00;64805.59;4994108;28;20018;-60
2021/08/11 00:31:45;;;;;;;15.55;7.80;;;;;;;-145.01;100.00;64805.59;4993143;28;20401;-59
2021/08/11 00:34:11;;;;;;;17.48;7.85;;;;;;;-145.01;100.00;64805.59;4993411;28;20030;-60
2021/08/11 00:36:36;;;;;;;16.02;8.05;;;;;;;-145.01;100.00;64805.59;4993291;28;20176;-59
2021/08/11 00:39:02;;;;;;;14.55;7.50;;;;;;;-145.01;100.00;64805.59;4993749;28;20033;-60
2021/08/11 00:41:27;;;;;;;11.30;8.07;;;;;;;-145.01;100.00;64805.59;4993339;28;20041;-60
2021/08/11 00:43:56;;;;;;;17.55;9.00;;;;;;;-145.01;100.00;64805.59;4993794;28;20033;-59
2021/08/11 00:46:21;;;;;;;16.88;7.80;;;;;;;-145.01;100.00;64805.59;4993215;28;20109;-60
2021/08/11 00:48:47;;;;;;;15.60;7.85;;;;;;;-145.01;100.00;64805.59;4993778;28;20034;-60
2021/08/11 00:51:12;;;;;;;12.55;7.15;;;;;;;-145.01;100.00;64805.59;4993177;28;20030;-59
2021/08/11 00:53:38;;;;;;;14.43;8.13;;;;;;;-145.01;100.00;64805.59;4976175;28;20038;-59
2021/08/11 00:56:04;;;;;;;15.48;8.48;;;;;;;-145.01;100.00;64805.59;4975996;28;20037;-59
2021/08/11 00:58:29;;;;;;;15.02;8.43;;;;;;;-145.01;100.00;64805.59;4993669;28;20424;-59
2021/08/11 01:00:55;;;;;;;13.73;8.55;;;;;;;-145.01;100.00;64805.59;4992005;28;20049;-59
2021/08/11 01:03:22;;;;;;;18.23;8.93;;;;;;;-145.01;100.00;64805.59;4976073;28;20114;-59
2021/08/11 01:05:47;;;;;;;19.65;9.48;;;;;;;-145.01;100.00;64805.59;4993049;28;20030;-59
2021/08/11 01:08:13;;;;;;;13.70;8.00;;;;;;;-145.01;100.00;64805.59;4993145;28;20610;-61
2021/08/11 01:10:39;;;;;;;18.00;8.52;;;;;;;-145.01;100.00;64805.59;4991924;28;20037;-59
2021/08/11 01:13:05;;;;;;;15.98;8.45;;;;;;;-145.01;100.00;64805.59;4993254;28;20085;-61
2021/08/11 01:15:30;;;;;;;17.13;8.52;;;;;;;-145.01;100.00;64805.59;4991936;28;20054;-62
2021/08/11 01:17:55;;;;;;;19.20;8.45;;;;;;;-145.01;100.00;64805.59;4993368;28;20027;-61
2021/08/11 01:20:21;;;;;;;19.95;9.43;;;;;;;-145.01;100.00;64805.59;4992905;28;20038;-61
2021/08/11 01:22:56;;;;;;;19.08;9.07;;;;;;;-145.01;100.00;64805.59;4992309;28;20084;-60
2021/08/11 01:25:33;;;;;;;18.90;9.10;;;;;;;-145.01;100.00;64805.59;4991592;28;20354;-61
2021/08/11 01:28:25;;;;;;;20.15;8.73;;;;;;;-145.01;100.00;64805.59;4992126;28;20027;-60
2021/08/11 01:31:18;;;;;;;16.70;8.70;;;;;;;-145.01;100.00;64805.59;4992585;28;20042;-61
2021/08/11 01:34:01;;;;;;;18.90;8.85;;;;;;;-145.01;100.00;64805.59;4992220;28;20022;-60
2021/08/11 01:36:44;;;;;;;21.08;8.93;;;;;;;-145.01;100.00;64805.59;4975584;28;20034;-61
2021/08/11 01:39:19;;;;;;;13.63;8.13;;;;;;;-145.01;100.00;64805.59;4992040;28;20034;-60
2021/08/11 01:41:46;;;;;;;17.38;8.68;;;;;;;-145.01;100.00;64805.59;4976455;28;20030;-60
2021/08/11 01:44:11;;;;;;;20.33;9.07;;;;;;;-145.01;100.00;64805.59;4959753;28;20023;-60
2021/08/11 01:46:40;;;;;;;19.17;9.82;;;;;;;-145.01;100.00;64805.59;4994593;28;20547;-60
2021/08/11 01:49:08;;;;;;;19.05;8.95;;;;;;;-145.01;100.00;64805.59;4995599;28;20029;-60
2021/08/11 01:51:35;;;;;;;19.23;9.07;;;;;;;-145.01;100.00;64805.59;4979148;28;20393;-60
2021/08/11 01:54:00;;;;;;;14.93;8.13;;;;;;;-145.01;100.00;64805.59;4979656;28;20038;-61
2021/08/11 01:56:26;;;;;;;16.35;8.45;;;;;;;-145.01;100.00;64805.59;4979007;28;20120;-60
2021/08/11 01:58:51;;;;;;;19.30;9.02;;;;;;;-145.01;100.00;64805.59;4995585;28;20041;-60
2021/08/11 02:01:17;;;;;;;18.08;7.82;;;;;;;-145.01;100.00;64805.59;4996336;28;20035;-60
2021/08/11 02:03:42;;;;;;;12.02;7.68;;;;;;;-145.01;100.00;64805.59;4996564;28;20330;-61
2021/08/11 02:06:08;;;;;;;16.25;7.38;;;;;;;-145.01;100.00;64805.59;4978603;28;20408;-60
2021/08/11 02:08:33;;;;;;;19.77;7.68;;;;;;;-145.01;100.00;64805.59;4996169;28;20053;-60
2021/08/11 02:10:59;;;;;;;18.05;7.68;;;;;;;-145.01;100.00;64805.59;4978723;28;20499;-60
2021/08/11 02:13:25;;;;;;;15.68;8.05;;;;;;;-145.01;100.00;64805.59;4995194;28;20097;-60
2021/08/11 02:15:51;;;;;;;19.17;8.30;;;;;;;-145.01;100.00;64805.59;4995002;28;20519;-60
2021/08/11 02:18:16;;;;;;;15.10;8.10;;;;;;;-145.01;100.00;64805.59;4996371;28;20496;-60
2021/08/11 02:20:42;;;;;;;14.10;7.35;;;;;;;-145.01;100.00;64805.59;4995739;28;20046;-60
2021/08/11 02:23:07;;;;;;;15.38;8.73;;;;;;;-145.01;100.00;64805.59;4996138;28;20061;-60
2021/08/11 02:25:51;;;;;;;15.23;8.80;;;;;;;-145.01;100.00;64805.59;4995901;28;20046;-60
2021/08/11 02:28:25;;;;;;;18.25;9.20;;;;;;;-145.01;100.00;64805.59;4996296;28;20034;-60
2021/08/11 02:31:23;;;;;;;18.77;9.93;;;;;;;-145.01;100.00;64805.59;4994101;28;20096;-60
2021/08/11 02:34:10;;;;;;;16.67;9.43;;;;;;;-145.01;100.00;64805.59;5020214;28;20097;-60
2021/08/11 02:36:42;;;;;;;20.92;9.70;;;;;;;-145.01;100.00;64805.59;4995543;28;20045;-60
2021/08/11 02:39:13;;;;;;;15.43;9.10;;;;;;;-145.01;100.00;64805.59;4996017;28;20056;-60
2021/08/11 02:41:46;;;;;;;16.48;9.40;;;;;;;-145.01;100.00;64805.59;4994060;28;20477;-60
2021/08/11 02:44:21;;;;;;;13.68;7.43;;;;;;;-145.01;100.00;64805.59;4979088;28;20058;-60
2021/08/11 02:46:46;;;;;;;12.77;8.30;;;;;;;-145.01;100.00;64805.59;4978201;28;20131;-60
2021/08/11 02:49:21;;;;;;;14.80;8.18;;;;;;;-145.01;100.00;64805.59;4994558;28;20034;-60
2021/08/11 02:51:46;;;;;;;15.52;9.15;;;;;;;-145.01;100.00;64805.59;4994148;28;20053;-60
2021/08/11 02:54:13;;;;;;;18.45;8.75;;;;;;;-145.01;100.00;64805.59;4994264;28;20031;-60
2021/08/11 02:56:39;;;;;;;20.17;9.20;;;;;;;-145.01;100.00;64805.59;4993724;28;20030;-61
2021/08/11 02:59:05;;;;;;;14.07;8.77;;;;;;;-145.01;100.00;64805.59;4995579;28;20532;-60
2021/08/11 03:01:30;;;;;;;16.73;9.45;;;;;;;-145.01;100.00;64805.59;4993815;28;20043;-61
2021/08/11 03:03:56;;;;;;;17.10;9.00;;;;;;;-145.01;100.00;64805.59;4994125;28;20027;-60
2021/08/11 03:06:22;;;;;;;15.55;9.68;;;;;;;-145.01;100.00;64805.59;4995079;28;20598;-60
2021/08/11 03:08:49;;;;;;;15.05;8.75;;;;;;;-145.01;100.00;64805.59;4977689;28;20090;-60
2021/08/11 03:11:14;;;;;;;15.73;7.88;;;;;;;-145.01;100.00;64805.59;4993563;28;20488;-60
2021/08/11 03:13:42;;;;;;;21.88;10.10;;;;;;;-145.01;100.00;64805.59;5010095;28;20030;-60
2021/08/11 03:16:09;;;;;;;183.60;10.93;;;;;;;-145.01;100.00;64805.59;4993738;28;20031;-60
2021/08/11 03:18:35;;;;;;;119.35;10.50;;;;;;;-145.01;100.00;64805.59;4995145;28;20362;-60
2021/08/11 03:21:00;;;;;;;157.27;12.27;;;;;;;-145.01;100.00;64805.59;4994700;28;20104;-60
2021/08/11 03:23:26;;;;;;;190.63;11.13;;;;;;;-145.01;100.00;64805.59;4994990;28;20030;-60
2021/08/11 03:25:51;;;;;;;87.80;10.52;;;;;;;-145.01;100.00;64805.59;4994575;28;20481;-60
2021/08/11 03:28:16;;;;;;;24.08;11.40;;;;;;;-145.01;100.00;64805.59;4995178;28;20034;-60
2021/08/11 03:30:42;;;;;;;54.15;9.98;;;;;;;-145.01;100.00;64805.59;4994683;28;20053;-60
2021/08/11 03:33:08;;;;;;;20.88;10.80;;;;;;;-145.01;100.00;64805.59;4994995;28;20023;-60
2021/08/11 03:35:33;;;;;;;18.42;11.18;;;;;;;-145.01;100.00;64805.59;4994359;28;20473;-60
2021/08/11 03:37:59;;;;;;;16.63;9.25;;;;;;;-145.01;100.00;64805.59;4994889;28;20038;-60
2021/08/11 03:40:24;;;;;;;15.90;8.70;;;;;;;-145.01;100.00;64805.59;4994388;28;20046;-60
2021/08/11 03:42:50;;;;;;;13.38;8.10;;;;;;;-145.01;100.00;64805.59;4994784;28;20027;-60
2021/08/11 03:45:15;;;;;;;14.43;7.82;;;;;;;-145.01;100.00;64805.59;4994275;28;20053;-60
2021/08/11 03:47:43;;;;;;;15.07;8.35;;;;;;;-145.01;100.00;64805.59;4994569;28;20026;-60
2021/08/11 03:50:12;;;;;;;13.90;7.95;;;;;;;-145.01;100.00;64805.59;4992983;28;20428;-61
2021/08/11 03:52:38;;;;;;;16.00;8.27;;;;;;;-145.01;100.00;64805.59;4994501;28;20084;-60
2021/08/11 03:55:04;;;;;;;16.98;8.38;;;;;;;-145.01;100.00;64805.59;4994276;28;20070;-61
2021/08/11 03:57:29;;;;;;;12.45;6.63;;;;;;;-145.01;100.00;64805.59;4994453;28;20026;-60
2021/08/11 03:59:55;;;;;;;13.38;7.53;;;;;;;-145.01;100.00;64805.59;4994432;28;20025;-60
2021/08/11 04:02:20;;;;;;;11.02;7.10;;;;;;;-145.01;100.00;64805.59;4994004;28;20049;-60
2021/08/11 04:04:46;;;;;;;12.30;7.68;;;;;;;-145.01;100.00;64805.59;4994376;28;20080;-60
2021/08/11 04:07:11;;;;;;;11.13;7.47;;;;;;;-145.01;100.00;64805.59;4993984;28;20070;-60
2021/08/11 04:09:36;;;;;;;11.93;6.18;;;;;;;-145.01;100.00;64805.59;4976218;28;20104;-60
2021/08/11 04:12:02;;;;;;;8.48;5.75;;;;;;;-145.01;100.00;64805.59;4993945;28;20038;-60
2021/08/11 04:14:27;;;;;;;7.65;5.22;;;;;;;-145.01;100.00;64805.59;4994261;28;20065;-60
2021/08/11 04:16:53;;;;;;;10.07;6.05;;;;;;;-145.01;100.00;64805.59;4993895;28;20038;-60
2021/08/11 04:19:18;;;;;;;8.13;5.05;;;;;;;-145.01;100.00;64805.59;4994139;28;20022;-60
2021/08/11 04:21:44;;;;;;;8.70;5.40;;;;;;;-145.01;100.00;64805.59;4993709;28;20034;-60
2021/08/11 04:24:09;;;;;;;9.43;5.72;;;;;;;-145.01;100.00;64805.59;4993937;28;20432;-60
2021/08/11 04:26:35;;;;;;;9.07;5.53;;;;;;;-145.01;100.00;64805.59;4993774;28;20409;-60
2021/08/11 04:29:00;;;;;;;11.48;5.47;;;;;;;-145.01;100.00;64805.59;4994051;28;20437;-60
2021/08/11 04:31:25;;;;;;;9.70;5.22;;;;;;;-145.01;100.00;64805.59;5025032;28;20512;-60
2021/08/11 04:33:51;;;;;;;9.85;5.28;;;;;;;-145.01;100.00;64805.59;4993768;28;20461;-61
2021/08/11 04:36:16;;;;;;;7.43;5.30;;;;;;;-145.01;100.00;64805.59;4993386;28;20042;-61
2021/08/11 04:38:42;;;;;;;6.72;4.63;;;;;;;-145.01;100.00;64805.59;4992443;28;20377;-60
2021/08/11 04:41:07;;;;;;;7.25;4.47;;;;;;;-145.01;100.00;64805.59;4992083;28;20085;-60
2021/08/11 04:43:32;;;;;;;9.20;4.20;;;;;;;-145.01;100.00;64805.59;4992733;28;20027;-61
2021/08/11 04:45:58;;;;;;;6.28;4.03;;;;;;;-145.01;100.00;64805.59;5024793;28;20366;-61
2021/08/11 04:48:23;;;;;;;6.68;4.05;;;;;;;-145.01;100.00;64805.59;4993698;28;20022;-61
2021/08/11 04:50:49;;;;;;;6.47;3.50;;;;;;;-145.01;100.00;64805.59;5024556;28;20034;-61
2021/08/11 04:53:14;;;;;;;6.93;3.78;;;;;;;-145.01;100.00;64805.59;4993573;28;20022;-61
2021/08/11 04:55:39;;;;;;;7.82;3.90;;;;;;;-145.01;100.00;64805.59;5024801;28;20373;-61
2021/08/11 04:58:05;;;;;;;6.00;3.75;;;;;;;-145.01;100.00;64805.59;4993737;28;20018;-61
2021/08/11 05:00:30;;;;;;;5.57;3.70;;;;;;;-145.01;100.00;64805.59;4993340;28;20034;-61
2021/08/11 05:02:56;;;;;;;6.57;3.92;;;;;;;-145.01;100.00;64805.59;5025228;28;20030;-61
2021/08/11 05:05:22;;;;;;;6.28;3.40;;;;;;;-145.01;100.00;64805.59;4993176;28;20378;-61
2021/08/11 05:07:48;;;;;;;12.55;4.18;;;;;;;-145.01;100.00;64805.59;4993247;28;20030;-61
2021/08/11 05:10:16;;;;;;;7.85;3.60;;;;;;;-145.01;100.00;64805.59;4993387;28;20034;-61
2021/08/11 05:12:41;;;;;;;5.53;3.58;;;;;;;-145.01;100.00;64805.59;4993563;28;20030;-60
2021/08/11 05:15:07;;;;;;;5.80;3.17;;;;;;;-145.01;100.00;64805.59;4993006;28;20104;-61
2021/08/11 05:17:33;;;;;;;11.73;4.07;;;;;;;-145.01;100.00;64805.59;4993442;28;20489;-60
2021/08/11 05:19:58;;;;;;;7.03;3.38;;;;;;;-145.01;100.00;64805.59;4993898;28;20030;-60
2021/08/11 05:22:23;;;;;;;10.77;3.58;;;;;;;-145.01;100.00;64805.59;4996952;28;20035;-60
2021/08/11 05:24:49;;;;;;;5.15;3.50;;;;;;;-145.01;100.00;64805.59;4997541;28;20028;-60
2021/08/11 05:27:14;;;;;;;4.63;3.28;;;;;;;-145.01;100.00;64805.59;4997017;28;20034;-60
2021/08/11 05:29:42;;;;;;;7.55;3.50;;;;;;;-145.01;100.00;64805.59;4997324;28;20040;-60
2021/08/11 05:32:08;;;;;;;5.93;3.55;;;;;;;-145.01;100.00;64805.59;4995745;28;20065;-60
2021/08/11 05:34:34;;;;;;;5.18;3.42;;;;;;;-145.01;100.00;64805.59;4995976;28;20120;-60
2021/08/11 05:36:59;;;;;;;8.35;3.22;;;;;;;-145.01;100.00;64805.59;4996850;28;20053;-60
2021/08/11 05:39:24;;;;;;;7.05;3.35;;;;;;;-145.01;100.00;64805.59;4997274;28;20014;-59
2021/08/11 05:41:50;;;;;;;8.52;3.10;;;;;;;-145.01;100.00;64805.59;4996844;28;20485;-60
2021/08/11 05:44:15;;;;;;;7.07;3.55;;;;;;;-145.01;100.00;64805.59;4996963;28;20029;-59
2021/08/11 05:46:41;;;;;;;7.28;3.50;;;;;;;-145.01;100.00;64805.59;4996713;28;20038;-59
2021/08/11 05:49:06;;;;;;;6.10;3.40;;;;;;;-145.01;100.00;64805.59;4996910;28;20069;-59
2021/08/11 05:51:34;;;;;;;6.57;4.05;;;;;;;-145.01;100.00;64805.59;4996557;28;20038;-60
2021/08/11 05:54:03;;;;;;;9.88;3.70;;;;;;;-145.01;100.00;64805.59;4996902;28;20365;-58
2021/08/11 05:56:29;;;;;;;5.13;2.95;;;;;;;-145.01;100.00;64805.59;4996510;28;20031;-61
2021/08/11 05:58:54;;;;;;;7.07;2.97;;;;;;;-145.01;100.00;64805.59;4996994;28;20037;-60
2021/08/11 06:01:21;;;;;;;5.75;2.88;;;;;;;-145.01;100.00;64805.59;4996379;28;20361;-60
2021/08/11 06:03:46;;;;;;;10.98;3.22;;;;;;;-145.01;100.00;64805.59;4996640;28;20389;-59
2021/08/11 06:06:12;;;;;;;6.57;2.75;;;;;;;-145.01;100.00;64805.59;4996348;28;20035;-60
2021/08/11 06:08:37;;;;;;;4.30;2.70;;;;;;;-145.01;100.00;64805.59;4996485;28;20509;-59
2021/08/11 06:11:03;;;;;;;5.90;2.35;;;;;;;-145.01;100.00;64805.59;4996211;28;20066;-59
2021/08/11 06:13:28;;;;;;;4.78;2.50;;;;;;;-145.01;100.00;64805.59;4996434;28;20033;-60
2021/08/11 06:15:53;;;;;;;5.47;2.10;;;;;;;-145.01;100.00;64805.59;5027389;28;20037;-59
2021/08/11 06:18:19;;;;;;;3.90;2.38;;;;;;;-145.01;100.00;64805.59;4996006;28;20053;-59
2021/08/11 06:20:47;;;;;;;4.70;2.47;;;;;;;-145.01;100.00;64805.59;5027347;28;20036;-59
2021/08/11 06:23:12;;;;;;;3.55;2.30;;;;;;;-145.01;100.00;64805.59;4996120;28;20026;-59
2021/08/11 06:25:37;;;;;;;4.85;2.25;;;;;;;-145.01;100.00;64805.59;4995069;28;20038;-59
2021/08/11 06:28:03;;;;;;;4.95;2.50;;;;;;;-145.01;100.00;64805.59;4996260;28;20019;-59
2021/08/11 06:30:28;;;;;;;4.35;2.28;;;;;;;-145.01;100.00;64805.59;4995439;28;20041;-59
2021/08/11 06:32:54;;;;;;;4.28;2.50;;;;;;;-145.01;100.00;64805.59;5027392;28;20082;-59
2021/08/11 06:35:19;;;;;;;4.57;2.65;;;;;;;-145.01;100.00;64805.59;4995785;28;20034;-59
2021/08/11 06:37:46;;;;;;;5.00;2.78;;;;;;;-145.01;100.00;64805.59;4996041;28;20085;-59
2021/08/11 06:40:12;;;;;;;4.68;2.53;;;;;;;-145.01;100.00;64805.59;4995606;28;20032;-59
2021/08/11 06:42:37;;;;;;;5.95;2.45;;;;;;;-145.01;100.00;64805.59;4996158;28;20026;-59
2021/08/11 06:45:03;;;;;;;6.20;2.75;;;;;;;-145.01;100.00;64805.59;4995443;28;20487;-59
2021/08/11 06:47:29;;;;;;;4.13;2.78;;;;;;;-145.01;100.00;64805.59;4994452;28;20480;-59
2021/08/11 06:49:54;;;;;;;6.13;2.92;;;;;;;-145.01;100.00;64805.59;4996131;28;20023;-59
2021/08/11 06:52:19;;;;;;;5.53;2.63;;;;;;;-145.01;100.00;64805.59;4995485;28;20065;-59
2021/08/11 06:54:45;;;;;;;7.57;3.08;;;;;;;-145.01;100.00;64805.59;4995850;28;20488;-59
2021/08/11 06:57:10;;;;;;;5.43;3.03;;;;;;;-145.01;100.00;64805.59;4976624;28;20031;-59
2021/08/11 06:59:36;;;;;;;4.82;2.70;;;;;;;-145.01;100.00;64805.59;4976350;28;20030;-58
2021/08/11 07:02:01;;;;;;;3.83;2.70;;;;;;;-145.01;100.00;64805.59;4975843;28;20042;-58
2021/08/11 07:04:27;;;;;;;4.38;3.08;;;;;;;-145.01;100.00;64805.59;4975181;28;20085;-61
2021/08/11 07:06:54;;;;;;;6.72;3.90;;;;;;;-145.01;100.00;64805.59;4975899;28;20047;-59
2021/08/11 07:09:22;;;;;;;6.88;3.85;;;;;;;-145.01;100.00;64805.59;4975961;28;20050;-58
2021/08/11 07:11:47;;;;;;;6.95;3.50;;;;;;;-145.01;100.00;64805.59;4975707;28;20038;-58
2021/08/11 07:14:13;;;;;;;6.20;3.03;;;;;;;-145.01;100.00;64805.59;4976382;28;20054;-59
2021/08/11 07:16:38;;;;;;;8.18;3.58;;;;;;;-145.01;100.00;64805.59;4975445;28;20141;-59
2021/08/11 07:19:04;;;;;;;6.00;3.60;;;;;;;-145.01;100.00;64805.59;4975814;28;20035;-59
2021/08/11 07:21:29;;;;;;;6.88;3.55;;;;;;;-145.01;100.00;64805.59;4975523;28;20050;-59
2021/08/11 07:23:55;;;;;;;6.63;3.60;;;;;;;-145.01;100.00;64805.59;5007190;28;20023;-59
2021/08/11 07:26:20;;;;;;;5.47;3.58;;;;;;;-145.01;100.00;64805.59;4975406;28;20449;-59
2021/08/11 07:28:46;;;;;;;5.70;3.00;;;;;;;-145.01;100.00;64805.59;4975762;28;20035;-59
2021/08/11 07:31:11;;;;;;;4.90;3.00;;;;;;;-145.01;100.00;64805.59;4975223;28;20046;-59
2021/08/11 07:33:37;;;;;;;6.82;3.20;;;;;;;-145.01;100.00;64805.59;4975734;28;20023;-60
2021/08/11 07:36:02;;;;;;;5.38;3.10;;;;;;;-145.01;100.00;64805.59;4975134;28;20039;-60
2021/08/11 07:38:28;;;;;;;5.80;3.00;;;;;;;-145.01;100.00;64805.59;4975657;28;20045;-59
2021/08/11 07:40:53;;;;;;;5.55;3.22;;;;;;;-145.01;100.00;64805.59;4975151;28;20529;-60
2021/08/11 07:43:19;;;;;;;5.93;3.10;;;;;;;-145.01;100.00;64805.59;4974523;28;20030;-59
2021/08/11 07:45:44;;;;;;;6.47;3.20;;;;;;;-145.01;100.00;64805.59;5006310;28;20101;-59
2021/08/11 07:48:09;;;;;;;8.15;3.08;;;;;;;-145.01;100.00;64805.59;4975396;28;20031;-60
2021/08/11 07:50:37;;;;;;;5.07;3.05;;;;;;;-145.01;100.00;64805.59;4973643;28;20035;-60
2021/08/11 07:53:02;;;;;;;5.82;2.95;;;;;;;-145.01;100.00;64805.59;4975360;28;20031;-59
2021/08/11 07:55:28;;;;;;;5.63;2.75;;;;;;;-145.01;100.00;64805.59;4974838;28;20050;-59
2021/08/11 07:57:53;;;;;;;4.38;2.65;;;;;;;-145.01;100.00;64805.59;4975045;28;20390;-60
2021/08/11 08:00:20;;;;;;;7.22;2.90;;;;;;;-145.01;100.00;64805.59;4974599;28;20019;-60
2021/08/11 08:02:46;;;;;;;16.00;4.05;;;;;;;-145.01;100.00;64805.59;4974939;28;20374;-60
2021/08/11 08:05:11;;;;;;;20.45;4.47;;;;;;;-145.01;100.00;64805.59;4989694;28;20023;-59
2021/08/11 08:07:37;;;;;;;21.48;4.15;;;;;;;-145.01;100.00;64805.59;4975117;28;20034;-60
2021/08/11 08:10:03;;;;;;;15.95;3.70;;;;;;;-145.01;100.00;64805.59;4974120;28;20402;-59
2021/08/11 08:12:29;;;;;;;12.40;4.20;;;;;;;-145.01;100.00;64805.59;4974597;28;20023;-60
2021/08/11 08:14:54;;;;;;;15.57;4.13;;;;;;;-145.01;100.00;64805.59;4974673;28;20031;-60
2021/08/11 08:17:19;;;;;;;11.20;4.07;;;;;;;-145.01;100.00;64805.59;5003665;28;20030;-59
2021/08/11 08:19:45;;;;;;;9.00;3.78;;;;;;;-145.01;100.00;64805.59;4994257;28;20377;-60
2021/08/11 08:22:10;;;;;;;14.65;4.70;;;;;;;-145.01;100.00;64805.59;4993611;28;20489;-59
2021/08/11 08:24:36;;;;;;;16.88;3.67;;;;;;;-145.01;100.00;64805.59;4994050;28;20027;-60
2021/08/11 08:27:02;;;;;;;17.83;3.55;;;;;;;-145.01;100.00;64805.59;4993552;28;20038;-59
2021/08/11 08:29:27;;;;;;;14.82;3.70;;;;;;;-145.01;100.00;64805.59;4993869;28;20102;-59
2021/08/11 08:31:52;;;;;;;10.55;3.70;;;;;;;-145.01;100.00;64805.59;4993655;28;20035;-59
2021/08/11 08:34:18;;;;;;;11.40;3.85;;;;;;;-145.01;100.00;64805.59;4993764;28;20026;-59
2021/08/11 08:36:43;;;;;;;12.07;3.55;;;;;;;-145.01;100.00;64805.59;4993539;28;20054;-59
2021/08/11 08:39:09;;;;;;;13.68;3.90;;;;;;;-145.01;100.00;64805.59;4993840;28;20022;-59
2021/08/11 08:41:35;;;;;;;13.73;3.80;;;;;;;-145.01;100.00;64805.59;4993445;28;20053;-59
2021/08/11 08:44:00;;;;;;;10.43;3.72;;;;;;;-145.01;100.00;64805.59;4993761;28;20118;-60
2021/08/11 08:46:26;;;;;;;9.05;3.65;;;;;;;-145.01;100.00;64805.59;4992157;28;20038;-59
2021/08/11 08:48:51;;;;;;;7.55;3.30;;;;;;;-145.01;100.00;64805.59;4976227;28;20493;-60
2021/08/11 08:51:16;;;;;;;10.48;3.28;;;;;;;-145.01;100.00;64805.59;4975733;28;20034;-60
2021/08/11 08:53:43;;;;;;;11.50;3.40;;;;;;;-145.01;100.00;64805.59;4992155;28;20034;-59
2021/08/11 08:56:09;;;;;;;16.77;4.47;;;;;;;-145.01;100.00;64805.59;4993206;28;20500;-59
2021/08/11 08:58:34;;;;;;;14.73;4.28;;;;;;;-145.01;100.00;64805.59;4993453;28;20033;-59
2021/08/11 09:00:59;;;;;;;17.77;5.20;;;;;;;-145.01;100.00;64805.59;4993038;28;20130;-59
2021/08/11 09:03:25;;;;;;;21.50;5.10;;;;;;;-145.01;100.00;64805.59;4993517;28;20049;-59
2021/08/11 09:05:50;;;;;;;16.23;5.07;;;;;;;-145.01;100.00;64805.59;4993032;28;20038;-59
2021/08/11 09:08:16;;;;;;;13.15;4.18;;;;;;;-145.01;100.00;64805.59;4993493;28;20042;-59
2021/08/11 09:10:41;;;;;;;13.35;4.25;;;;;;;-145.01;100.00;64805.59;4991856;28;20117;-60
2021/08/11 09:13:33;;;;;;;11.80;3.83;;;;;;;-145.01;100.00;64805.59;4993414;28;20444;-59
2021/08/11 09:16:04;;;;;;;12.82;4.10;;;;;;;-145.01;100.00;64805.59;4992781;28;20049;-60
2021/08/11 09:18:30;;;;;;;11.98;3.30;;;;;;;-145.01;100.00;64805.59;4993494;28;20577;-60
2021/08/11 09:21:06;;;;;;;7.88;3.50;;;;;;;-145.01;100.00;64805.59;4992872;28;20026;-60
2021/08/11 09:23:42;;;;;;;8.00;3.53;;;;;;;-145.01;100.00;64805.59;4993186;28;20113;-59
2021/08/11 09:26:09;;;;;;;12.73;3.40;;;;;;;-145.01;100.00;64805.59;4993046;28;20193;-60
2021/08/11 09:28:36;;;;;;;8.52;3.20;;;;;;;-145.01;100.00;64805.59;4993093;28;20109;-60
2021/08/11 09:31:23;;;;;;;9.20;3.10;;;;;;;-145.01;100.00;64805.59;4992865;28;20129;-60
2021/08/11 09:33:53;;;;;;;5.00;3.08;;;;;;;-145.01;100.00;64805.59;4992493;28;20037;-59
2021/08/11 09:36:19;;;;;;;5.63;2.60;;;;;;;-145.01;100.00;64805.59;4992844;28;20038;-60
2021/08/11 09:39:13;;;;;;;5.30;2.75;;;;;;;-145.01;100.00;64805.59;4993318;28;20030;-59
2021/08/11 09:41:59;;;;;;;4.63;2.78;;;;;;;-145.01;100.00;64805.59;4992130;28;20046;-61
2021/08/11 09:44:25;;;;;;;7.20;3.13;;;;;;;-145.01;100.00;64805.59;4992955;28;20024;-60
2021/08/11 09:46:50;;;;;;;4.00;2.65;;;;;;;-145.01;100.00;64805.59;4991712;28;20040;-60
2021/08/11 09:49:17;;;;;;;4.22;2.80;;;;;;;-145.01;100.00;64805.59;4975694;28;20034;-60
2021/08/11 09:52:01;;;;;;;4.40;2.58;;;;;;;-145.01;100.00;64805.59;4992470;28;20035;-60
2021/08/11 09:54:29;;;;;;;7.53;2.80;;;;;;;-145.01;100.00;64805.59;4993097;28;20093;-59
2021/08/11 09:56:55;;;;;;;7.70;2.80;;;;;;;-145.01;100.00;64805.59;4992716;28;20121;-61
2021/08/11 09:59:21;;;;;;;5.10;3.10;;;;;;;-145.01;100.00;64805.59;4993525;28;20121;-60
2021/08/11 10:01:46;;;;;;;5.40;3.10;;;;;;;-145.01;100.00;64805.59;4992964;28;20031;-60
2021/08/11 10:04:13;;;;;;;4.60;2.70;;;;;;;-145.01;100.00;64805.59;4993199;28;20495;-60
2021/08/11 10:06:42;;;;;;;5.95;2.90;;;;;;;-145.01;100.00;64805.59;5025586;28;20045;-60
2021/08/11 10:09:21;;;;;;;6.53;3.22;;;;;;;-145.01;100.00;64805.59;4995546;28;20049;-60
2021/08/11 10:11:51;;;;;;;5.40;3.07;;;;;;;-145.01;100.00;64805.59;4996508;28;20049;-60
2021/08/11 10:14:18;;;;;;;5.45;3.00;;;;;;;-145.01;100.00;64805.59;4996579;28;20292;-60
2021/08/11 10:16:43;;;;;;;4.65;2.85;;;;;;;-145.01;100.00;64805.59;4996098;28;20045;-60
2021/08/11 10:19:10;;;;;;;5.55;2.95;;;;;;;-145.01;100.00;64805.59;4996433;28;20023;-60
2021/08/11 10:21:51;;;;;;;5.25;2.95;;;;;;;-145.01;100.00;64805.59;4995842;28;20034;-60
2021/08/11 10:24:17;;;;;;;4.57;2.80;;;;;;;-145.01;100.00;64805.59;4994840;28;20034;-60
2021/08/11 10:26:43;;;;;;;5.32;2.92;;;;;;;-145.01;100.00;64805.59;4995906;28;20405;-60
2021/08/11 10:29:08;;;;;;;5.75;3.20;;;;;;;-145.01;100.00;64805.59;4996350;28;20030;-60
2021/08/11 10:31:34;;;;;;;6.53;3.10;;;;;;;-145.01;100.00;64805.59;4995976;28;20045;-60
2021/08/11 10:34:02;;;;;;;5.05;2.75;;;;;;;-145.01;100.00;64805.59;4996068;28;20030;-60
2021/08/11 10:36:31;;;;;;;6.22;3.47;;;;;;;-145.01;100.00;64805.59;4995786;28;20125;-60
2021/08/11 10:38:58;;;;;;;10.18;4.00;;;;;;;-145.01;100.00;64805.59;4996402;28;20045;-60
2021/08/11 10:41:30;;;;;;;9.35;4.38;;;;;;;-145.01;100.00;64805.59;4995774;28;20289;-60
2021/08/11 10:43:56;;;;;;;12.70;4.70;;;;;;;-145.01;100.00;64805.59;4994835;28;20026;-60
2021/08/11 10:46:22;;;;;;;9.45;3.95;;;;;;;-145.01;100.00;64805.59;4994361;28;20042;-60
2021/08/11 10:49:04;;;;;;;8.50;4.72;;;;;;;-145.01;100.00;64805.59;4996128;28;20023;-61
2021/08/11 10:51:37;;;;;;;8.48;3.92;;;;;;;-145.01;100.00;64805.59;4994558;28;20133;-61
2021/08/11 10:54:03;;;;;;;12.10;4.40;;;;;;;-145.01;100.00;64805.59;4995990;28;20058;-61
2021/08/11 10:56:47;;;;;;;16.98;4.40;;;;;;;-145.01;100.00;64805.59;4995647;28;20058;-61
2021/08/11 10:59:21;;;;;;;9.95;4.50;;;;;;;-145.01;100.00;64805.59;4995846;28;20042;-60
2021/08/11 11:01:47;;;;;;;14.50;4.78;;;;;;;-145.01;100.00;64805.59;4995396;28;20057;-59
2021/08/11 11:04:13;;;;;;;9.85;3.80;;;;;;;-145.01;100.00;64805.59;4995536;28;20030;-59